空港情報

日本の空港の気象及び、管制情報です。
気象情報はより詳細な情報が取得できる「AVIATION WEATER CENTER」 から取得しているため、VATSIMの気象情報と若干のタイムラグが生じることがあります。

VRCのフィールド設定用空港一覧はこちらをご覧ください。

RJCG Sapporo Control

RJCW / Wakkanai
VMC

NO RADAR

RADIO

08/26 2200x45

民間 civil

8000

180@19KT

29.17

RJCW 230900Z 18019KT 8000 -SHRA FEW005 SCT015 BKN030 15/14 Q0988

RJER / Rishiri

NO RADAR

REMOTE

25/07 1800x45

民間 civil

過去5時間に発表されたMETARがありません。

RJEB / Monbetsu
VMC

NO RADAR

REMOTE

32/14 2000x45

民間 civil

9999

140@20G32KT

29.29

RJEB 230700Z 14020G32KT 9999 FEW015 SCT110 BKN150 16/12 Q0992

RJCM / Memanbetsu
VMC

NO RADAR

TOWER

36/18 2500x45

民間 civil

9999

170@7KT

29.26

RJCM 231000Z 17007KT 9999 FEW010 SCT015 BKN020 15/12 Q0991

RJEC / Asahikawa
VMC

NO RADAR

TOWER

34/16 2500x60

民間 civil

9999

220@10KT

29.32

RJEC 231000Z 22010KT 180V250 9999 -SHRA FEW005 SCT020 BKN040 14/08 Q0993

RJCN / Nakashibetsu
IMC

NO RADAR

RADIO

08/26 2000x45

民間 civil

3100

090@8KT

29.32

RJCN 230900Z 09008KT 060V120 3100 -SHRA BR FEW003 BKN005 BKN008 15/15 Q0993

RJCK / Kushiro
IMC

NO RADAR

TOWER

17/35 2500x45

民間 civil

0300

190@10KT

29.32

RJCK 231024Z 19010KT 0300 R17/0700N FG VV001 15/15 Q0993 RMK A2932

RJCO / Sapporo
VMC

RJCO_APP

TOWER

14/32 1500x30

共用 dual

9999

250@4KT

29.38

RJCO 231000Z 25004KT 9999 FEW010 SCT050 14/10 Q0995

RJCJ / Chitose

RJCC_APP

TOWER

36R/18L 3000x60
36L/18R 2700x45

自衛隊 military

過去5時間に発表されたMETARがありません。

RJCC / NewChitose
VMC

RJCC_APP

TOWER

01L/19R 3000x60
01R/19L 3000x60

民間 civil

9999

230@7KT

29.38

RJCC 231030Z 23007KT 9999 FEW010 13/11 Q0995 RMK 1ST010 A2940

RJCB / Obihiro
IMC

NO RADAR

TOWER

35/17 2500x45

民間 civil

0800

320@6KT

29.32

RJCB 231024Z 32006KT 0800 R35/0800V1200N FG -SHRA VV002 13/13 Q0993 RMK A2934

RJEO / Okushiri

NO RADAR

REMOTE

12/30 1500x45

民間 civil

過去5時間に発表されたMETARがありません。

RJCH / Hakodate
VMC

RJCH_APP

TOWER

12/30 3000x45

民間 civil

9999

270@13KT

29.44

RJCH 231000Z 27013KT 9999 FEW030 SCT070 BKN080 14/09 Q0997

RJSA / Aomori
VMC

NO RADAR

TOWER

24/06 3000x60

民間 civil

9999

260@11KT

29.50

RJSA 231000Z 26011KT 9999 FEW010 BKN025 13/09 Q0999

RJSO / Ominato

RJSM_APP

TOWER

04/22 600x45

自衛隊 military

過去5時間に発表されたMETARがありません。

RJSM / Misawa
VMC

RJSM_APP

TOWER

10/28 3050x45

共用 dual

9999

260@5KT

29.47

RJSM 231000Z 26005KT 9999 FEW030 SCT/// 15/10 Q0998

RJSH / Hachinohe
VMC

RJSM_APP

TOWER

25/07 2250x45

自衛隊 military

9999

290@3KT

29.47

RJSH 230852Z 29003KT 210V020 9999 FEW030 BKN050 15/11 Q0998 RMK 1CU030 5SC050 A2949

RJSK / Akita
VMC

NO RADAR

TOWER

10/28 2500x60

民間 civil

9999

320@5KT

29.56

RJSK 231000Z 32005KT 9999 FEW001 SCT020 BKN030 14/13 Q1001

RJSI / Hanamaki
VMC

NO RADAR

RADIO

20/02 2500x45

民間 civil

9999

260@3KT

29.53

RJSI 231000Z 26003KT 220V350 9999 FEW008 SCT030 BKN090 15/12 Q1000

RJSR / Odate-Noshiro
VMC

NO RADAR

REMOTE

11/29 2000x45

民間 civil

9999

190@5KT

29.53

RJSR 231000Z 19005KT 9999 -SHRA FEW008 SCT015 BKN030 13/13 Q1000

RJTG Tokyo Control

RJSY / Shonai
VMC

NO RADAR

RADIO

09/27 2000x45

民間 civil

9999

280@13KT

29.59

RJSY 231000Z 28013KT 9999 -SHRA FEW020 SCT050 BKN070 17/12 Q1002

RJSC / Yamagata
VMC

NO RADAR

RADIO

01/19 2000x45

民間 civil

9999

000@1KT

29.56

RJSC 231000Z VRB01KT 9999 FEW025 SCT050 BKN/// 14/13 Q1001

RJST / Matsushima

RJSS_APP

TOWER

07/25 2071x46
15/33 1500x46

自衛隊 military

過去5時間に発表されたMETARがありません。

RJSS / Sendai
VMC

RJSS_APP

TOWER

27/09 3000x45
12/30 1200x45

民間 civil

9999

250@5KT

29.50

RJSS 231000Z 25005KT 220V280 9999 FEW010 BKN180 BKN/// 16/15 Q0999

RJSD / Sado

NO RADAR

REMOTE

10/28 890x25

民間 civil

過去5時間に発表されたMETARがありません。

RJSN / Niigata
VMC

RJSN_APP

TOWER

10/28 2500x45
04/22 1314x45

民間 civil

8000

230@7KT

29.62

RJSN 231000Z 23007KT 8000 -SHRA FEW010 SCT020 BKN030 15/15 Q1003

RJSF / Fukushima
VMC

NO RADAR

RADIO

01/19 2500x60

民間 civil

9999

350@13KT

29.59

RJSF 231000Z 35013KT 9999 FEW015 SCT050 BKN060 14/11 Q1002

RJAH / Ibaraki/Hyakuri
IMC

RJAH_APP

TOWER

03L/21R 2700x45
03R/21L 2700x45

共用 dual

5000

360@5KT

29.53

RJAH 231000Z 36005KT 5000 -SHRA BR FEW003 BKN004 BKN015 18/17 Q1000

RJTT / Tokyo
VMC

RJTT_APP

TOWER

34LR/16RL 3000x60
04/22&05/23 2500x60

民間 civil

9999

000@1KT

29.53

RJTT 231030Z VRB01KT 9999 FEW010 BKN040 19/17 Q1000 BECMG 35012KT RMK 1ST010 7SC040 A2955

RJAA / Narita
IMC

RJTT_APP

TOWER

34L/16R 4000x60
34R/16L 2500x60

民間 civil

1800

300@3KT

29.53

RJAA 231030Z 30003KT 1800 -SHRA BR SCT001 BKN002 18/18 Q1000 TEMPO 1500 -SHRA BR RMK 3ST001 7ST002 A2955

RJTL / Shimofusa
VMC

RJTT_APP

TOWER

19/01 2250x45

自衛隊 military

6000

000@1KT

29.53

RJTL 230931Z VRB01KT 6000 SCT007 BKN020 BKN080 18/17 Q1000 RMK 4ST007 6SC020 7AC080 A2953

RJTE / Tateyama
VMC

RJTT_APP

TOWER

09/27 300x45

自衛隊 military

9999

000@1KT

29.53

RJTE 230802Z VRB01KT 9999 FEW008 BKN015 BKN060 19/18 Q1000 RMK 1ST008 5CU015 7SC060 A2953

RJTO / Oshima
VMC

NO RADAR

RADIO

03/21 1800x45

民間 civil

9999

000@2KT

29.50

RJTO 230700Z VRB02KT 9999 -SHRA FEW006 SCT009 BKN011 20/19 Q0999

RJTK / Kisarazu
IMC

NO RADAR

TOWER

02/20 1830x45

自衛隊 military

4000

000@2KT

29.53

RJTK 230718Z VRB02KT 4000 -RA BR FEW004 BKN006 BKN015 18/18 Q1000 RMK 1ST004 5ST006 5SC015 A2954

RJAN / Niijima

NO RADAR

REMOTE

11/29 800x25

自衛隊 military

過去5時間に発表されたMETARがありません。

RJAZ / Kozushima

NO RADAR

REMOTE

11/29 800x25

民間 civil

過去5時間に発表されたMETARがありません。

RJTH / Hachijojima

NO RADAR

RADIO

26/08 2000x45

民間 civil

過去5時間に発表されたMETARがありません。

RJTF / Chofu
VMC

NO RADAR

Flight Service

35/17 800x30

民間 civil

7000

000@1KT

29.53

RJTF 230700Z VRB01KT 7000 -SHRA FEW015 SCT030 BKN060 18/18 Q1000

RJTQ / Miyake

NO RADAR

REMOTE

02/20 1200x30

民間 civil

過去5時間に発表されたMETARがありません。

RJTC / Tachikawa

NO RADAR

TOWER

01/19 900x45

自衛隊 military

過去5時間に発表されたMETARがありません。

RJTA / Atsugi

NO RADAR

TOWER

01/19 2438x45

自衛隊 military

過去5時間に発表されたMETARがありません。

RJTU / Utsunomiya
IMC

RJTY_APP

TOWER

01/19 1700x45

自衛隊 military

8000

060@5KT

29.50

RJTU 230648Z 06005KT 8000 -SHRA FEW003 BKN006 BKN020 18/17 Q0999 RMK 2ST003 5CU006 6SC020 A2952

RJTJ / Iruma

RJTY_APP

TOWER

17/35 2000x45

自衛隊 military

過去5時間に発表されたMETARがありません。

RJTY / Yokota
VMC

RJTY_APP

TOWER

18/36 3353x60

自衛隊 military

9700

000@0KT

29.60

RJTY 230956Z AUTO 00000KT 6SM BR BKN046 BKN180 17/17 A2960 RMK AO2 SLP025 T01730173 FZRANO $

RJAF / Matsumoto
VMC

NO RADAR

RADIO

18/36 2000x45

民間 civil

9999

350@4KT

29.62

RJAF 230700Z 35004KT 9999 FEW005 SCT020 BKN170 14/13 Q1003

RJNS / Shizuoka
VMC

NO RADAR

RADIO

30/12 2500x60

民間 civil

9999

270@15KT

29.53

RJNS 231000Z 27015KT 9999 FEW008 SCT170 16/14 Q1000

RJNY / Yaizu-Shizuhama
VMC

NO RADAR

TOWER

27/09 1500x45

自衛隊 military

9999

280@10KT

29.50

RJNY 230835Z 28010KT 9999 FEW008 SCT090 19/15 Q0999 RMK 1ST008 3AC090 A2951

RJNH / Hamamatsu

RJNH_APP

TOWER

09/27 2550x60

自衛隊 military

過去5時間に発表されたMETARがありません。

RJGG / Chubu
VMC

RJGG_APP

TOWER

36/18 3500x60

民間 civil

9999

330@28KT

29.68

RJGG 231030Z 33028KT 9999 FEW015 18/11 Q1005 NOSIG

RJNA / Nagoya

RJGG_APP

TOWER

34/16 2740x45

民間 civil

過去5時間に発表されたMETARがありません。

RJNG / Gifu
VMC

RJGG_APP

TOWER

28/10 2710x46

自衛隊 military

9999

300@8KT

29.65

RJNG 230807Z 30008KT 9999 FEW015 SCT180 18/10 Q1004 RMK 1CU015 4AC180 A2965

RJOE / Akeno

RJOE_APP

TOWER

13/31 500x30
04/22 500x30

自衛隊 military

過去5時間に発表されたMETARがありません。

RJNK / Komatsu
VMC

RJNK_APP

TOWER

06/24 2700x45

共用 dual

9999

360@10KT

29.70

RJNK 231000Z 36010KT 9999 -SHRA FEW020 SCT030 BKN070 15/12 Q1006

RJNW / Noto
VMC

NO RADAR

RADIO

25/07 2000x45

民間 civil

9999

000@7KT

29.70

RJNW 231000Z VRB07KT 9999 FEW025 SCT030 BKN070 12/10 Q1006

RJNT / Toyama
VMC

NO RADAR

TOWER

20/02 2000x45

民間 civil

9999

260@5KT

29.70

RJNT 231000Z 26005KT 9999 FEW020 SCT040 14/12 Q1006

RJNF / Fukui

NO RADAR

REMOTE

18/36 1200x30

民間 civil

過去5時間に発表されたMETARがありません。

RJBD / Nanki-Shirahama
VMC

NO RADAR

RADIO

15/33 2000x45

民間 civil

9999

340@16KT

29.70

RJBD 231000Z 34016KT 9999 FEW020 SCT035 18/11 Q1006

RJOY / Yao
VMC

RJBB_APP

TOWER

27/09 1490x45
13/31 1200x30

民間 civil

9999

340@9KT

29.73

RJOY 231000Z 34009KT 9999 FEW030 BKN070 17/09 Q1007

RJOO / Osaka
VMC

RJBB_APP

TOWER

32L/14R 3000x60
32R/14L 1830x45

民間 civil

9999

310@11KT

29.73

RJOO 231000Z 31011KT 9999 FEW030 16/09 Q1007 RMK 1CU030 A2974

RJOB / Okayama
VMC

RJBB_APP

TOWER

07/25 3000x45

民間 civil

9999

290@6KT

29.79

RJOB 231000Z 29006KT 250V330 9999 FEW025 12/07 Q1009

RJBB / Kansai
VMC

RJBB_APP

TOWER

06R/24L 3500x60
06L/24R 4000x60

民間 civil

9999

330@21KT

29.73

RJBB 231030Z 33021KT 9999 FEW020 SCT070 18/11 Q1007 NOSIG

RJBE / Kobe
VMC

RJBB_APP

TOWER

09/27 2500x60

民間 civil

9999

330@8KT

29.73

RJBE 231000Z 33008KT 9999 FEW030 17/07 Q1007

RJBT / Tajima
VMC

NO RADAR

REMOTE

01/19 1200x30

民間 civil

9999

320@3KT

29.73

RJBT 230900Z 32003KT 270V360 9999 -SHRA FEW030 BKN040 14/09 Q1007

RJOR / Tottori
VMC

NO RADAR

RADIO

10/28 2000x45

民間 civil

9999

230@6KT

29.76

RJOR 231000Z 23006KT 9999 FEW025 BKN040 15/07 Q1008

RJNO / Oki

NO RADAR

REMOTE

07/25 2000x45

民間 civil

過去5時間に発表されたMETARがありません。

RJOH / Miho
VMC

RJOH_APP

TOWER

25/07 2500x45

共用 dual

9999

240@8KT

29.79

RJOH 231000Z 24008KT 9999 FEW030 SCT050 15/09 Q1009

RJOC / Izumo
VMC

RJOH_APP

RADIO

07/25 2000x45

共用 dual

9999

200@5KT

29.79

RJOC 231000Z 20005KT 150V300 9999 -SHRA FEW025 SCT040 BKN050 14/10 Q1009

RJDG Fukuoka Control

RJOT / Takamatsu
VMC

RJBB_APP

TOWER

26/08 2500x60

民間 civil

9999

000@3KT

29.79

RJOT 231000Z VRB03KT 9999 FEW035 BKN050 15/08 Q1009

RJOK / Kochi
VMC

RJBB_APP

TOWER

32/14 2500x45

民間 civil

9999

350@9KT

29.73

RJOK 231000Z 35009KT 9999 FEW030 16/09 Q1007

RJOS / Tokushima
VMC

RJOS_APP

TOWER

29/11 2500x45

共用 dual

9999

330@14KT

29.73

RJOS 231000Z 33014KT 9999 FEW030 BKN050 18/07 Q1007

RJOA / Hiroshima
VMC

RJOA_APP

TOWER

10/28 3000x60

民間 civil

9999

290@4KT

29.82

RJOA 231000Z 29004KT 240V330 9999 FEW025 12/07 Q1010

RJBH / Hiroshimanishi

NO RADAR

Flight Service

04/22 1800x45

民間 civil

過去5時間に発表されたMETARがありません。

RJOI / Iwakuni
VMC

RJOI_APP

TOWER

02/20 2440x60

共用 dual

9999

290@8KT

29.86

RJOI 230955Z 29008KT 9999 FEW035 15/06 A2986 RMK SLP109 T01500061

RJOM / Matsuyama
VMC

RJOI_APP

TOWER

14/32 2500x45

民間 civil

9999

340@12KT

29.79

RJOM 231000Z 34012KT 9999 FEW030 SCT060 17/08 Q1009

RJOZ / Ozuki

RJFZ_APP

TOWER

35/17 1201x61
12/30 899x46

自衛隊 military

過去5時間に発表されたMETARがありません。

RJOF / Hofu

RJFZ_APP

TOWER

30/12 1180x60
01/19 1480x45

自衛隊 military

過去5時間に発表されたMETARがありません。

RJDC / Yamaguchi-Ube
VMC

RJFZ_APP

RADIO

07/25 2500x45

民間 civil

9999

320@5KT

29.85

RJDC 231000Z 32005KT 280V010 9999 FEW040 14/07 Q1011

RJFR / Kitakyushu
VMC

RJFZ_APP

TOWER

18/36 2500x60

民間 civil

9999

310@9KT

29.85

RJFR 231000Z 31009KT 9999 FEW030 15/06 Q1011

RJFZ / Tsuiki

RJFZ_APP

TOWER

25/07 2399x46

自衛隊 military

過去5時間に発表されたMETARがありません。

RJOW / Iwami
VMC

NO RADAR

REMOTE

11/29 2000x45

民間 civil

9999

240@5KT

29.85

RJOW 231000Z 24005KT 9999 FEW035 12/09 Q1011

RJDT / Tsushima
VMC

NO RADAR

REMOTE

32/14 1900x45

民間 civil

9999

250@3KT

29.88

RJDT 231000Z 25003KT CAVOK 13/05 Q1012

RJFF / Fukuoka
VMC

RJFF_APP

TOWER

16/34 2800x60

民間 civil

9999

310@7KT

29.88

RJFF 231030Z 31007KT 260V340 9999 FEW040 15/04 Q1012 NOSIG RMK 1SC040 A2991

RJFS / Saga
VMC

RJFF_APP

RADIO

29/11 2000x45

民間 civil

9999

320@3KT

29.88

RJFS 231000Z 32003KT 290V350 CAVOK 12/07 Q1012

RJFA / Ashiya

RJFF_APP

TOWER

12/30 1640x46

自衛隊 military

過去5時間に発表されたMETARがありません。

RJDB / Iki

RJFF_APP

REMOTE

20/02 1200x30

民間 civil

過去5時間に発表されたMETARがありません。

RJFO / Oita
VMC

RJFO_APP

TOWER

01/19 3000x45

民間 civil

9999

260@4KT

29.85

RJFO 231000Z 26004KT 9999 FEW040 14/07 Q1011

RJFU / Nagasaki
VMC

RJFU_APP

TOWER

32/14 3000x60

民間 civil

9999

340@14KT

29.88

RJFU 231000Z 34014KT 9999 FEW030 15/05 Q1012

RJDU / Omura

RJFU_APP

TOWER

18/36 1200x30

自衛隊 military

過去5時間に発表されたMETARがありません。

RJFE / Fukue
VMC

NO RADAR

RADIO

03/21 2000x45

民間 civil

9999

340@8KT

29.91

RJFE 231000Z 34008KT 310V010 9999 FEW040 15/07 Q1013

RJDO / Ojika

NO RADAR

REMOTE

03/21 800x30

民間 civil

過去5時間に発表されたMETARがありません。

RJDK / Kamigoto

NO RADAR

REMOTE

17/35 800x30

民間 civil

過去5時間に発表されたMETARがありません。

RJDA / Amakusa

NO RADAR

Flight Service

31/13 1000x30

民間 civil

過去5時間に発表されたMETARがありません。

RJFT / Kumamoto
VMC

RJFT_APP

TOWER

07/25 3000x45

民間 civil

9999

340@3KT

29.88

RJFT 231000Z 34003KT CAVOK 11/06 Q1012

RJFN / Nyutabaru

RJFM_APP

TOWER

28/10 2701x46

自衛隊 military

過去5時間に発表されたMETARがありません。

RJFM / Miyazaki
VMC

RJFM_APP

TOWER

27/09 2500x45

民間 civil

9999

270@14KT

29.82

RJFM 231000Z 27014KT 9999 FEW030 16/07 Q1010

RJFK / Kagoshima
VMC

RJFK_APP

TOWER

34/16 3000x45

民間 civil

9999

300@6KT

29.88

RJFK 231000Z 30006KT 9999 SCT040 13/08 Q1012 RMK 3CU040 A2988

RJFY / Kanoya
VMC

RJFY_APP

TOWER

26L/08R 2250x45
26R/08L 1200x40

自衛隊 military

9999

280@15G25KT

29.79

RJFY 230604Z 28015G25KT 9999 FEW035 20/07 Q1009 RMK 1CU035 A2980

RJFG / Tanegashima
VMC

NO RADAR

RADIO

31/13 2000x45

民間 civil

9999

300@22G33KT

29.82

RJFG 230900Z 30022G33KT 9999 FEW030 16/08 Q1010

RJFC / Yakushima

NO RADAR

REMOTE

14/32 1500x45

民間 civil

過去5時間に発表されたMETARがありません。

RJBG Kobe Control

ROAH / Naha
VMC

ROAH_APP

TOWER

36/18 3000x45

共用 dual

9999

010@21KT

29.94

ROAH 231030Z 01021KT 9999 SCT040 BKN060 22/14 Q1014 RMK 3SC040 6SC060 A2995

RORA / Aguni

ROAH_APP

REMOTE

01/19 800x25

民間 civil

過去5時間に発表されたMETARがありません。

ROKJ / Kumejima

ROAH_APP

REMOTE

03/21 2000x45

民間 civil

過去5時間に発表されたMETARがありません。

RODN / Kadena
VMC

ROAH_APP

TOWER

05L/23R 3688x91
05R/23L 3688x61

自衛隊 military

9999

010@11KT

29.95

RODN 230956Z AUTO 01011KT 10SM FEW043 OVC055 22/14 A2995 RMK AO2 RAE00DZB00E02 SLP148 P0000 T02160137 $

ROTM / Futenma
VMC

ROAH_APP

TOWER

06/24 2740x45

自衛隊 military

8000

010@12G22KT

29.88

ROTM 230556Z 01012G22KT 8000 -SHRA BR BKN030 OVC040 21/17 A2988 RMK SLP106 P0001 60015 T02060167 10217 20206 59000

RORS / Shimojishima
VMC

RORS_APP

TOWER

17/35 3000x60

民間 civil

9999

030@20KT

29.94

RORS 231000Z 03020KT 9999 VCSH FEW030 SCT040 BKN080 22/17 Q1014

ROMY / Miyako
VMC

RORS_APP

TOWER

04/22 2000x45

民間 civil

9999

020@13G23KT

29.94

ROMY 231000Z 02013G23KT 340V050 9999 FEW018 SCT030 BKN045 21/17 Q1014

ROIG / New Ishigaki
VMC

RORS_APP

TOWER

22/04 2000x45

民間 civil

9999

020@12KT

29.94

ROIG 231000Z 02012KT 9999 -SHRA FEW015 BKN040 BKN070 21/19 Q1014

RORT / Tarama

RORS_APP

REMOTE

36/18 1500x45

民間 civil

過去5時間に発表されたMETARがありません。

RJKA / Amami
VMC

NO RADAR

RADIO

03/21 2000x45

民間 civil

9999

340@11KT

29.88

RJKA 231000Z 34011KT 300V020 9999 FEW040 SCT045 BKN/// 20/11 Q1012

RJKI / Kikai
VMC

NO RADAR

REMOTE

07/25 1200x30

民間 civil

9999

330@19KT

29.88

RJKI 231000Z AUTO 33019KT 9999 FEW038 SCT046 OVC050 22/14 Q1012

RJKN / Tokunoshima

NO RADAR

REMOTE

19/01 2000x45

民間 civil

過去5時間に発表されたMETARがありません。

RJKB / Okierabu

NO RADAR

REMOTE

04/22 1350x45

民間 civil

過去5時間に発表されたMETARがありません。

RORY / Yoron
VMC

NO RADAR

REMOTE

32/14 1320x30

民間 civil

9999

350@17KT

29.94

RORY 231000Z AUTO 35017KT 9999 FEW041 SCT047 OVC050 22/14 Q1014

RORK / Kitadaito
VMC

NO RADAR

REMOTE

03/21 1500x45

民間 civil

9999

350@17KT

29.85

RORK 231000Z AUTO 35017KT 9999 FEW027 SCT034 BKN040 23/18 Q1011

ROMD / Minami-daito
VMC

NO RADAR

REMOTE

02/20 1500x45

民間 civil

9999

360@15KT

29.85

ROMD 231000Z AUTO 36015KT 9999 FEW021 SCT037 OVC040 23/19 Q1011

ROYN / Yonaguni
VMC

NO RADAR

REMOTE

26/08 2000x45

民間 civil

9999

040@27KT

29.97

ROYN 231000Z AUTO 04027KT 9999 SCT036 SCT048 BKN050 23/16 Q1015

RORH / Hateruma

NO RADAR

REMOTE

02/20 800x25

民間 civil

過去5時間に発表されたMETARがありません。

ROKR / Kerama

NO RADAR

REMOTE

02/20 800x25

民間 civil

過去5時間に発表されたMETARがありません。